createdAt,value
2019-05-21T00:01:05.157Z,67.07
2019-05-21T00:03:34.193Z,72.83
2019-05-21T00:06:41.473Z,78.93
2019-05-21T00:09:29.659Z,81.43
2019-05-21T00:12:02.143Z,79.60
2019-05-21T00:14:37.756Z,83.03
2019-05-21T00:17:06.900Z,77.77
2019-05-21T00:19:35.893Z,81.20
2019-05-21T00:22:04.936Z,78.60
2019-05-21T00:24:53.364Z,76.03
2019-05-21T00:27:41.789Z,81.63
2019-05-21T00:30:46.733Z,85.40
2019-05-21T00:33:51.389Z,73.43
2019-05-21T00:37:00.528Z,70.00
2019-05-21T00:40:05.248Z,61.23
2019-05-21T00:42:53.542Z,55.93
2019-05-21T00:45:22.766Z,50.00
2019-05-21T00:47:51.881Z,49.13
2019-05-21T00:50:40.128Z,48.30
2019-05-21T00:56:20.304Z,54.20
2019-05-21T00:59:08.485Z,58.17
2019-05-21T01:01:37.591Z,52.40
2019-05-21T01:04:06.801Z,56.37
2019-05-21T01:06:35.883Z,55.40
2019-05-21T01:09:06.295Z,61.67
2019-05-21T01:11:35.427Z,57.93
2019-05-21T01:14:04.721Z,60.03
2019-05-21T01:16:33.850Z,72.00
2019-05-21T01:19:02.971Z,72.23
2019-05-21T01:21:32.095Z,78.13
2019-05-21T01:24:01.177Z,71.10
2019-05-21T01:26:30.156Z,80.17
2019-05-21T01:28:59.140Z,71.97
2019-05-21T01:31:28.198Z,80.63
2019-05-21T01:33:57.251Z,68.40
2019-05-21T01:36:45.477Z,70.07
2019-05-21T01:39:18.045Z,74.07
2019-05-21T01:42:06.224Z,89.57
2019-05-21T01:44:48.983Z,73.27
2019-05-21T01:47:27.522Z,82.30
2019-05-21T01:49:56.630Z,77.83
2019-05-21T01:52:25.903Z,70.60
2019-05-21T01:55:14.276Z,79.73
2019-05-21T02:00:39.568Z,81.77
2019-05-21T02:06:14.353Z,79.20
2019-05-21T02:08:43.408Z,91.10
2019-05-21T02:11:12.453Z,76.30
2019-05-21T02:13:41.672Z,74.30
2019-05-21T02:16:10.777Z,86.37
2019-05-21T02:18:39.800Z,97.00
2019-05-21T02:21:08.887Z,96.07
2019-05-21T02:23:37.882Z,101.50
2019-05-21T02:26:06.943Z,98.80
2019-05-21T02:28:36.069Z,92.20
2019-05-21T02:31:05.303Z,78.70
2019-05-21T02:33:34.353Z,66.83
2019-05-21T02:36:03.448Z,64.33
2019-05-21T02:38:32.484Z,67.60
2019-05-21T02:41:01.841Z,56.23
2019-05-21T02:43:31.011Z,43.57
2019-05-21T02:46:00.120Z,50.63
2019-05-21T02:48:29.190Z,55.57
2019-05-21T02:50:58.501Z,52.77
2019-05-21T02:53:27.607Z,62.63
2019-05-21T02:55:56.823Z,53.83
2019-05-21T02:58:26.010Z,57.13
2019-05-21T03:01:24.048Z,58.07
2019-05-21T03:03:53.207Z,46.73
2019-05-21T03:06:22.387Z,47.27
2019-05-21T03:08:51.569Z,41.27
2019-05-21T03:11:21.077Z,48.70
2019-05-21T03:13:50.153Z,45.43
2019-05-21T03:16:19.240Z,47.00
2019-05-21T03:18:48.393Z,50.40
2019-05-21T03:21:17.527Z,37.87
2019-05-21T03:23:46.495Z,43.20
2019-05-21T03:26:15.640Z,41.70
2019-05-21T03:28:44.729Z,41.73
2019-05-21T03:31:39.035Z,46.87
2019-05-21T03:34:08.196Z,48.37
2019-05-21T03:36:37.395Z,32.80
2019-05-21T03:39:06.492Z,37.63
2019-05-21T03:41:35.529Z,44.47
2019-05-21T03:44:04.692Z,43.90
2019-05-21T03:46:34.218Z,35.37
2019-05-21T03:55:25.593Z,44.17
2019-05-21T03:57:54.675Z,37.40
2019-05-21T04:00:23.787Z,36.00
2019-05-21T04:02:53.064Z,31.57
2019-05-21T04:05:25.420Z,35.40
2019-05-21T04:07:54.801Z,36.80
2019-05-21T04:10:23.953Z,32.37
2019-05-21T04:13:09.079Z,32.53
2019-05-21T04:15:47.459Z,34.77
2019-05-21T04:18:21.672Z,31.17
2019-05-21T04:20:50.787Z,38.80
2019-05-21T04:23:19.857Z,31.27
2019-05-21T04:25:48.957Z,24.87
2019-05-21T04:28:18.056Z,23.77
2019-05-21T04:30:47.296Z,24.57
2019-05-21T04:33:16.348Z,27.43
2019-05-21T04:35:45.438Z,30.20
2019-05-21T04:38:33.687Z,25.77
2019-05-21T04:41:02.649Z,30.73
2019-05-21T04:43:31.720Z,30.47
2019-05-21T04:46:00.862Z,32.53
2019-05-21T04:48:30.314Z,35.97
2019-05-21T04:50:59.428Z,26.77
2019-05-21T04:53:28.618Z,22.93
2019-05-21T04:55:57.794Z,25.17
2019-05-21T04:58:26.838Z,24.37
2019-05-21T05:00:55.917Z,22.63
2019-05-21T05:03:25.132Z,23.10
2019-05-21T05:05:54.273Z,29.60
2019-05-21T05:08:23.363Z,19.23
2019-05-21T05:10:52.576Z,22.77
2019-05-21T05:13:25.352Z,19.43
2019-05-21T05:15:54.485Z,23.30
2019-05-21T05:18:23.782Z,24.30
2019-05-21T05:20:52.852Z,21.33
2019-05-21T05:23:40.998Z,23.40
2019-05-21T05:26:10.081Z,25.70
2019-05-21T05:28:58.368Z,26.60
2019-05-21T05:31:27.548Z,22.77
2019-05-21T05:34:15.690Z,28.43
2019-05-21T05:36:57.166Z,24.97
2019-05-21T05:39:26.248Z,24.80
2019-05-21T05:41:55.399Z,19.83
2019-05-21T05:44:24.444Z,22.50
2019-05-21T05:46:53.635Z,20.43
2019-05-21T05:49:28.523Z,19.00
2019-05-21T05:52:17.042Z,16.73
2019-05-21T05:54:46.155Z,22.53
2019-05-21T05:57:34.316Z,19.70
2019-05-21T06:00:03.697Z,19.73
2019-05-21T06:02:51.942Z,22.47
2019-05-21T06:05:40.230Z,15.93
2019-05-21T06:08:21.355Z,19.80
2019-05-21T06:11:06.042Z,18.63
2019-05-21T06:13:38.869Z,18.87
2019-05-21T06:19:50.992Z,18.50
2019-05-21T06:22:20.319Z,16.83
2019-05-21T06:25:15.649Z,17.67
2019-05-21T06:27:57.755Z,17.97
2019-05-21T06:30:31.395Z,16.57
2019-05-21T06:39:57.156Z,16.33
2019-05-21T06:46:13.739Z,18.33
2019-05-21T06:52:27.229Z,18.30
2019-05-21T06:55:08.589Z,13.83
2019-05-21T07:01:31.526Z,15.70
2019-05-21T07:04:08.548Z,19.27
2019-05-21T07:07:18.173Z,16.93
2019-05-21T07:17:56.437Z,30.90
2019-05-21T07:21:00.209Z,23.43
2019-05-21T07:23:30.183Z,24.57
2019-05-21T07:26:00.078Z,20.30
2019-05-21T07:28:30.183Z,18.27
2019-05-21T07:31:01.469Z,21.73
2019-05-21T07:33:39.054Z,15.83
2019-05-21T07:36:11.063Z,16.53
2019-05-21T07:38:52.545Z,18.50
2019-05-21T07:41:12.803Z,19.47
2019-05-21T07:43:42.717Z,17.07
2019-05-21T07:46:30.743Z,17.40
2019-05-21T07:49:06.023Z,15.60
2019-05-21T07:51:35.181Z,14.53
2019-05-21T07:54:04.615Z,12.83
2019-05-21T07:56:33.762Z,12.57
2019-05-21T07:59:06.040Z,13.23
2019-05-21T08:04:24.419Z,14.67
2019-05-21T08:07:02.197Z,14.67
2019-05-21T08:09:31.346Z,12.43
2019-05-21T08:12:22.829Z,11.37
2019-05-21T08:14:53.129Z,8.43
2019-05-21T08:17:22.397Z,12.03
2019-05-21T08:20:08.485Z,10.97
2019-05-21T08:22:43.983Z,9.20
2019-05-21T08:25:14.701Z,9.03
2019-05-21T08:27:44.229Z,11.30
2019-05-21T08:30:26.084Z,9.43
2019-05-21T08:32:55.811Z,8.07
2019-05-21T08:35:25.616Z,11.63
2019-05-21T08:37:55.347Z,8.70
2019-05-21T08:40:24.879Z,10.50
2019-05-21T08:42:54.256Z,12.23
2019-05-21T08:45:23.531Z,13.03
2019-05-21T08:47:52.941Z,11.00
2019-05-21T08:50:22.540Z,12.83
2019-05-21T08:52:51.742Z,10.47
2019-05-21T08:55:20.893Z,9.07
2019-05-21T08:58:05.816Z,10.63
2019-05-21T09:00:22.609Z,14.20
2019-05-21T09:03:02.636Z,8.30
2019-05-21T09:05:32.720Z,9.73
2019-05-21T09:08:15.437Z,11.37
2019-05-21T09:10:49.854Z,10.20
2019-05-21T09:13:19.119Z,9.87
2019-05-21T09:15:52.568Z,11.33
2019-05-21T09:18:23.872Z,14.33
2019-05-21T09:20:53.216Z,11.83
2019-05-21T09:23:22.407Z,12.30
2019-05-21T09:25:51.825Z,9.80
2019-05-21T09:28:21.434Z,16.97
2019-05-21T09:30:51.386Z,9.93
2019-05-21T09:33:24.436Z,11.87
2019-05-21T09:35:53.833Z,12.50
2019-05-21T09:38:22.985Z,13.60
2019-05-21T09:40:53.059Z,15.77
2019-05-21T09:43:22.392Z,12.73
2019-05-21T09:45:52.140Z,12.63
2019-05-21T09:48:21.364Z,12.63
2019-05-21T09:50:50.633Z,11.27
2019-05-21T09:53:20.275Z,12.33
2019-05-21T09:55:57.039Z,12.57
2019-05-21T09:58:37.389Z,15.83
2019-05-21T10:01:23.459Z,9.67
2019-05-21T10:03:57.428Z,13.10
2019-05-21T10:06:26.817Z,15.90
2019-05-21T10:09:01.242Z,16.40
2019-05-21T10:11:40.655Z,13.73
2019-05-21T10:14:15.959Z,13.77
2019-05-21T10:16:45.371Z,17.60
2019-05-21T10:19:14.665Z,15.03
2019-05-21T10:21:45.740Z,19.63
2019-05-21T10:24:14.938Z,19.53
2019-05-21T10:26:44.386Z,20.30
2019-05-21T10:29:16.115Z,17.00
2019-05-21T10:31:45.365Z,16.50
2019-05-21T10:34:14.613Z,12.43
2019-05-21T10:36:43.633Z,16.20
2019-05-21T10:39:13.159Z,18.83
2019-05-21T10:41:45.918Z,19.10
2019-05-21T10:44:13.441Z,16.67
2019-05-21T10:46:42.977Z,24.70
2019-05-21T10:49:12.210Z,17.30
2019-05-21T10:51:41.655Z,14.70
2019-05-21T10:54:13.325Z,16.30
2019-05-21T10:56:47.817Z,18.47
2019-05-21T10:59:13.692Z,16.50
2019-05-21T11:02:08.577Z,16.60
2019-05-21T11:04:44.985Z,14.47
2019-05-21T11:07:15.885Z,17.90
2019-05-21T11:09:45.284Z,14.20
2019-05-21T11:12:16.625Z,16.13
2019-05-21T11:14:45.881Z,19.67
2019-05-21T11:17:15.957Z,16.83
2019-05-21T11:19:45.311Z,15.60
2019-05-21T11:22:14.746Z,17.83
2019-05-21T11:24:44.219Z,19.00
2019-05-21T11:27:14.183Z,20.63
2019-05-21T11:29:44.402Z,16.70
2019-05-21T11:32:16.653Z,18.83
2019-05-21T11:34:49.805Z,17.17
2019-05-21T11:37:18.275Z,16.03
2019-05-21T11:39:49.056Z,13.77
2019-05-21T11:42:26.402Z,16.30
2019-05-21T11:44:57.545Z,18.40
2019-05-21T11:47:30.476Z,17.57
2019-05-21T11:50:01.144Z,24.30
2019-05-21T11:52:34.249Z,14.87
2019-05-21T11:55:04.344Z,17.90
2019-05-21T11:57:34.388Z,19.03
2019-05-21T12:00:08.425Z,20.87
2019-05-21T12:02:38.570Z,14.33
2019-05-21T12:05:08.279Z,17.33
2019-05-21T12:07:37.589Z,19.93
2019-05-21T12:10:07.596Z,17.43
2019-05-21T12:12:36.761Z,19.80
2019-05-21T12:15:06.949Z,16.47
2019-05-21T12:17:36.368Z,14.97
2019-05-21T12:20:06.327Z,16.50
2019-05-21T12:22:35.492Z,14.70
2019-05-21T12:25:05.418Z,17.07
2019-05-21T12:27:34.593Z,19.07
2019-05-21T12:30:04.161Z,16.33
2019-05-21T12:32:33.672Z,15.27
2019-05-21T12:35:03.061Z,18.47
2019-05-21T12:37:32.405Z,17.33
2019-05-21T12:40:01.661Z,17.80
2019-05-21T12:42:30.894Z,19.50
2019-05-21T12:45:00.085Z,23.17
2019-05-21T12:47:29.343Z,17.90
2019-05-21T12:49:58.575Z,18.37
2019-05-21T12:52:27.906Z,19.87
2019-05-21T12:54:57.162Z,12.97
2019-05-21T12:57:30.760Z,19.53
2019-05-21T13:00:00.180Z,16.53
2019-05-21T13:02:29.966Z,20.67
2019-05-21T13:04:59.174Z,21.93
2019-05-21T13:07:31.324Z,25.27
2019-05-21T13:10:00.697Z,17.50
2019-05-21T13:12:30.083Z,20.23
2019-05-21T13:14:59.562Z,20.97
2019-05-21T13:17:29.021Z,19.27
2019-05-21T13:19:58.470Z,16.00
2019-05-21T13:22:28.109Z,16.47
2019-05-21T13:24:57.586Z,17.07
2019-05-21T13:27:26.839Z,19.87
2019-05-21T13:29:56.485Z,20.43
2019-05-21T13:32:25.752Z,17.60
2019-05-21T13:34:55.054Z,20.90
2019-05-21T13:37:24.686Z,16.90
2019-05-21T13:39:53.936Z,19.53
2019-05-21T13:42:23.277Z,15.70
2019-05-21T13:44:52.618Z,19.80
2019-05-21T13:47:23.311Z,22.87
2019-05-21T13:49:52.708Z,17.77
2019-05-21T13:52:22.060Z,21.87
2019-05-21T13:54:51.274Z,19.93
2019-05-21T13:57:20.546Z,20.17
2019-05-21T13:59:49.673Z,20.23
2019-05-21T14:02:20.148Z,20.27
2019-05-21T14:04:49.386Z,23.97
2019-05-21T14:07:18.679Z,21.37
2019-05-21T14:09:48.157Z,21.10
2019-05-21T14:12:18.071Z,14.07
2019-05-21T14:14:47.271Z,22.10
2019-05-21T14:17:16.843Z,21.17
2019-05-21T14:19:51.043Z,18.57
2019-05-21T14:22:20.432Z,21.70
2019-05-21T14:24:50.093Z,20.63
2019-05-21T14:27:19.336Z,19.03
2019-05-21T14:29:50.109Z,21.33
2019-05-21T14:32:21.157Z,21.73
2019-05-21T14:35:00.788Z,23.43
2019-05-21T14:37:21.283Z,24.30
2019-05-21T14:39:50.454Z,21.83
2019-05-21T14:42:19.903Z,17.10
2019-05-21T14:44:49.401Z,20.17
2019-05-21T14:47:18.579Z,22.47
2019-05-21T14:49:47.822Z,20.33
2019-05-21T14:52:18.803Z,20.97
2019-05-21T14:54:48.102Z,27.20
2019-05-21T14:57:17.975Z,25.73
2019-05-21T14:59:47.100Z,23.00
2019-05-21T15:02:16.303Z,23.57
2019-05-21T15:04:45.798Z,21.37
2019-05-21T15:07:15.195Z,19.90
2019-05-21T15:09:44.385Z,20.50
2019-05-21T15:12:13.575Z,21.40
2019-05-21T15:14:42.878Z,24.83
2019-05-21T15:17:12.067Z,22.53
2019-05-21T15:19:43.017Z,22.00
2019-05-21T15:22:12.100Z,21.27
2019-05-21T15:24:41.239Z,22.33
2019-05-21T15:27:10.445Z,21.73
2019-05-21T15:29:39.668Z,21.80
2019-05-21T15:32:09.012Z,19.53
2019-05-21T15:35:26.353Z,22.13
2019-05-21T15:38:14.563Z,20.93
2019-05-21T15:40:47.024Z,22.77
2019-05-21T15:43:35.312Z,21.77
2019-05-21T15:46:47.914Z,30.90
2019-05-21T15:49:11.180Z,25.07
2019-05-21T15:54:39.958Z,26.03
2019-05-21T15:57:28.149Z,20.50
2019-05-21T16:03:00.927Z,20.37
2019-05-21T16:05:30.003Z,23.63
2019-05-21T16:08:18.463Z,28.13
2019-05-21T16:10:47.865Z,25.40
2019-05-21T16:13:16.982Z,23.27
2019-05-21T16:15:57.964Z,25.57
2019-05-21T16:24:17.176Z,22.00
2019-05-21T16:26:46.325Z,30.23
2019-05-21T16:29:15.537Z,26.00
2019-05-21T16:34:47.855Z,28.17
2019-05-21T16:37:57.166Z,22.37
2019-05-21T16:40:44.522Z,31.30
2019-05-21T16:43:13.871Z,26.60
2019-05-21T16:46:13.884Z,29.23
2019-05-21T16:48:44.918Z,30.10
2019-05-21T16:51:33.394Z,30.53
2019-05-21T16:54:04.266Z,34.80
2019-05-21T16:56:43.981Z,28.37
2019-05-21T16:59:51.376Z,33.50
2019-05-21T17:02:20.706Z,26.77
2019-05-21T17:04:49.859Z,26.87
2019-05-21T17:07:18.943Z,28.57
2019-05-21T17:10:07.144Z,29.37
2019-05-21T17:12:57.152Z,22.30
2019-05-21T17:15:38.187Z,29.30
2019-05-21T17:18:41.408Z,34.47
2019-05-21T17:21:45.396Z,31.50
2019-05-21T17:24:27.898Z,30.37
2019-05-21T17:27:09.487Z,32.17
2019-05-21T17:30:09.749Z,31.27
2019-05-21T17:32:48.597Z,32.53
2019-05-21T17:35:19.297Z,32.50
2019-05-21T17:38:11.189Z,24.70
2019-05-21T17:40:59.535Z,29.93
2019-05-21T17:43:32.412Z,30.20
2019-05-21T17:46:21.969Z,25.90
2019-05-21T17:48:52.937Z,29.93
2019-05-21T17:51:41.537Z,32.40
2019-05-21T17:54:55.584Z,29.80
2019-05-21T17:57:28.699Z,29.60
2019-05-21T18:00:01.971Z,32.37
2019-05-21T18:02:32.021Z,29.13
2019-05-21T18:05:01.409Z,30.00
2019-05-21T18:07:57.157Z,31.23
2019-05-21T18:14:11.805Z,33.47
2019-05-21T18:22:26.597Z,29.17
2019-05-21T18:24:55.754Z,33.87
2019-05-21T18:27:44.019Z,29.20
2019-05-21T18:30:34.728Z,27.27
2019-05-21T18:45:08.346Z,35.17
2019-05-21T18:47:37.491Z,32.10
2019-05-21T18:50:06.635Z,37.33
2019-05-21T18:52:35.773Z,35.13
2019-05-21T18:55:24.242Z,30.37
2019-05-21T18:58:12.534Z,35.67
2019-05-21T19:00:45.308Z,35.33
2019-05-21T19:03:14.466Z,39.60
2019-05-21T19:06:02.714Z,40.37
2019-05-21T19:08:35.100Z,31.97
2019-05-21T19:11:23.257Z,24.23
2019-05-21T19:14:10.998Z,20.73
2019-05-21T19:16:50.555Z,19.13
2019-05-21T19:19:19.672Z,20.97
2019-05-21T19:22:07.917Z,14.67
2019-05-21T19:27:35.996Z,12.40
2019-05-21T19:30:24.268Z,12.27
2019-05-21T19:33:18.701Z,16.77
2019-05-21T19:36:27.820Z,23.27
2019-05-21T19:39:20.572Z,19.60
2019-05-21T19:41:58.595Z,18.93
2019-05-21T19:44:30.955Z,21.47
2019-05-21T19:47:02.178Z,23.73
2019-05-21T19:49:31.343Z,17.83
2019-05-21T19:52:19.643Z,25.77
2019-05-21T19:54:48.654Z,22.30
2019-05-21T19:57:19.831Z,18.73
2019-05-21T19:59:48.988Z,16.40
2019-05-21T20:02:18.734Z,23.43
2019-05-21T20:05:15.691Z,18.07
2019-05-21T20:07:45.140Z,18.60
2019-05-21T20:10:34.293Z,23.23
2019-05-21T20:13:07.185Z,22.27
2019-05-21T20:15:36.204Z,16.50
2019-05-21T20:18:17.956Z,15.33
2019-05-21T20:21:03.456Z,17.80
2019-05-21T20:23:35.909Z,23.60
2019-05-21T20:26:37.438Z,23.73
2019-05-21T20:29:13.835Z,17.80
2019-05-21T20:32:02.127Z,18.13
2019-05-21T20:34:31.294Z,18.73
2019-05-21T20:37:23.636Z,19.67
2019-05-21T20:39:53.343Z,21.23
2019-05-21T20:42:41.641Z,22.10
2019-05-21T20:45:19.182Z,19.23
2019-05-21T20:47:50.409Z,14.50
2019-05-21T20:50:20.062Z,16.40
2019-05-21T20:53:18.917Z,15.17
2019-05-21T21:01:52.506Z,15.97
2019-05-21T21:04:40.741Z,11.53
2019-05-21T21:07:21.705Z,11.20
2019-05-21T21:10:25.746Z,13.50
2019-05-21T21:16:23.824Z,8.47
2019-05-21T21:18:56.264Z,9.67
2019-05-21T21:21:41.617Z,7.27
2019-05-21T21:24:38.720Z,9.27
2019-05-21T21:27:08.371Z,9.73
2019-05-21T21:29:56.575Z,8.57
2019-05-21T21:35:27.131Z,7.87
2019-05-21T21:41:36.609Z,11.63
2019-05-21T21:44:09.460Z,11.90
2019-05-21T21:52:39.626Z,9.13
2019-05-21T21:55:31.287Z,8.50
2019-05-21T21:58:10.369Z,10.30
2019-05-21T22:01:50.817Z,11.37
2019-05-21T22:04:25.199Z,14.63
2019-05-21T22:06:55.582Z,11.73
2019-05-21T22:09:43.915Z,9.53
2019-05-21T22:12:32.301Z,11.00
2019-05-21T22:15:06.152Z,12.23
2019-05-21T22:17:35.575Z,10.50
2019-05-21T22:20:50.838Z,8.63
2019-05-21T22:23:39.323Z,11.40
2019-05-21T22:26:35.146Z,9.83
2019-05-21T22:29:15.076Z,13.53
2019-05-21T22:31:55.920Z,10.87
2019-05-21T22:34:44.247Z,14.37
2019-05-21T22:37:42.922Z,11.57
2019-05-21T22:40:14.188Z,11.13
2019-05-21T22:43:29.493Z,11.53
2019-05-21T23:00:33.740Z,13.47
2019-05-21T23:03:02.960Z,9.30
2019-05-21T23:05:32.120Z,8.67
2019-05-21T23:08:01.730Z,9.27
2019-05-21T23:11:22.866Z,8.90
2019-05-21T23:14:02.870Z,9.30
2019-05-21T23:16:47.392Z,9.03
2019-05-21T23:20:15.804Z,9.67
2019-05-21T23:22:58.517Z,10.30
2019-05-21T23:26:05.898Z,11.87
2019-05-21T23:28:46.630Z,9.70
2019-05-21T23:31:16.288Z,11.77
2019-05-21T23:33:45.413Z,10.77
2019-05-21T23:36:14.618Z,7.93
2019-05-21T23:39:04.594Z,10.87
2019-05-21T23:41:34.297Z,9.97
2019-05-21T23:44:05.712Z,11.47
2019-05-21T23:46:34.968Z,8.97
2019-05-21T23:49:32.375Z,7.47
2019-05-21T23:52:37.471Z,6.83
2019-05-21T23:55:09.260Z,6.07
2019-05-21T23:57:38.660Z,8.93
